Time;durP1;ratioP1;P1;durP2;ratioP2;P2;SDS_P1;SDS_P2;PMS_P1;PMS_P2;Temp;Humidity;BMP_temperature;BMP_pressure;BME280_temperature;BME280_humidity;BME280_pressure;Samples;Min_cycle;Max_cycle;Signal;HPM_P1;HPM_P2
2021/01/09 00:00:35;;;;;;;25.50;14.47;;;0.10;99.90;;;;;;5015625;28;20210;-77
2021/01/09 00:03:01;;;;;;;27.80;16.77;;;0.20;99.90;;;;;;5015784;28;20171;-76
2021/01/09 00:05:27;;;;;;;27.27;14.60;;;0.20;99.90;;;;;;5015297;28;20594;-78
2021/01/09 00:07:53;;;;;;;24.53;15.80;;;0.30;99.90;;;;;;5015536;28;20175;-76
2021/01/09 00:10:18;;;;;;;25.13;14.33;;;0.40;99.90;;;;;;5015591;28;20182;-78
2021/01/09 00:12:44;;;;;;;22.77;13.20;;;0.50;99.90;;;;;;5015516;28;20179;-77
2021/01/09 00:15:10;;;;;;;25.30;13.83;;;0.20;99.90;;;;;;5015035;28;20249;-77
2021/01/09 00:17:37;;;;;;;20.75;14.70;;;0.20;99.90;;;;;;5015231;28;20214;-75
2021/01/09 00:20:10;;;;;;;24.48;13.95;;;0.20;99.90;;;;;;5015200;28;20255;-77
2021/01/09 00:22:36;;;;;;;24.75;15.23;;;0.10;99.90;;;;;;5015210;28;20171;-77
2021/01/09 00:25:04;;;;;;;25.37;15.43;;;0.20;99.90;;;;;;5014857;28;20730;-77
2021/01/09 00:27:30;;;;;;;29.42;17.90;;;0.20;99.90;;;;;;5015075;28;20175;-77
2021/01/09 00:29:56;;;;;;;23.77;15.90;;;0.10;99.90;;;;;;5013951;28;20189;-78
2021/01/09 00:32:21;;;;;;;25.53;16.50;;;0.10;99.90;;;;;;5013712;28;20178;-76
2021/01/09 00:34:47;;;;;;;25.30;17.53;;;0.10;99.90;;;;;;5014704;28;20671;-77
2021/01/09 00:37:12;;;;;;;22.37;15.83;;;0.20;99.90;;;;;;5014991;28;20202;-77
2021/01/09 00:39:38;;;;;;;22.83;14.10;;;0.20;99.90;;;;;;5014867;28;20206;-76
2021/01/09 00:42:04;;;;;;;21.77;15.27;;;0.20;99.90;;;;;;5014705;28;20755;-76
2021/01/09 00:44:29;;;;;;;24.73;15.60;;;0.40;99.90;;;;;;5014331;28;20195;-78
2021/01/09 00:46:56;;;;;;;26.13;14.50;;;0.50;99.90;;;;;;5014786;28;20540;-77
2021/01/09 00:49:22;;;;;;;22.58;13.80;;;0.50;99.90;;;;;;5014758;28;20228;-76
2021/01/09 00:51:48;;;;;;;25.00;15.02;;;0.40;99.90;;;;;;5013407;28;20298;-76
2021/01/09 00:54:14;;;;;;;34.93;16.90;;;0.40;99.90;;;;;;5014428;28;20282;-76
2021/01/09 00:56:39;;;;;;;22.10;13.73;;;0.40;99.90;;;;;;5014631;28;20429;-76
2021/01/09 00:59:05;;;;;;;25.40;15.47;;;0.30;99.90;;;;;;5014662;28;20197;-78
2021/01/09 01:01:31;;;;;;;27.83;14.60;;;0.40;99.90;;;;;;5014635;28;20167;-78
2021/01/09 01:03:56;;;;;;;25.53;14.33;;;0.30;99.90;;;;;;5014066;28;20167;-79
2021/01/09 01:06:25;;;;;;;21.83;15.27;;;0.40;99.90;;;;;;5014441;28;20175;-76
2021/01/09 01:08:51;;;;;;;21.50;14.55;;;0.40;99.90;;;;;;5014505;28;20536;-76
2021/01/09 01:11:25;;;;;;;30.05;13.70;;;0.30;99.90;;;;;;5014376;28;20274;-76
2021/01/09 01:13:52;;;;;;;22.83;13.63;;;0.30;99.90;;;;;;5013962;28;20257;-76
2021/01/09 01:16:18;;;;;;;20.33;12.40;;;0.30;99.90;;;;;;5014245;28;20186;-75
2021/01/09 01:18:44;;;;;;;24.15;12.18;;;0.40;99.90;;;;;;5014413;28;20213;-77
2021/01/09 01:21:10;;;;;;;20.77;12.63;;;0.40;99.90;;;;;;5014291;28;20199;-76
2021/01/09 01:23:35;;;;;;;20.87;13.63;;;0.40;99.90;;;;;;5013970;28;20445;-80
2021/01/09 01:26:01;;;;;;;24.40;14.17;;;0.40;99.90;;;;;;5013963;28;20191;-80
2021/01/09 01:28:26;;;;;;;21.07;12.20;;;0.50;99.90;;;;;;5013878;28;20258;-79
2021/01/09 01:30:52;;;;;;;25.10;12.70;;;0.60;99.90;;;;;;5014008;28;20213;-78
2021/01/09 01:33:18;;;;;;;22.93;11.67;;;0.60;99.90;;;;;;5013967;28;20179;-77
2021/01/09 01:35:43;;;;;;;20.50;11.80;;;0.50;99.90;;;;;;5013596;28;20198;-76
2021/01/09 01:38:09;;;;;;;23.73;13.67;;;0.50;99.90;;;;;;5013834;28;20257;-78
2021/01/09 01:40:34;;;;;;;20.80;12.80;;;0.60;99.90;;;;;;5013311;28;20944;-77
2021/01/09 01:43:00;;;;;;;24.83;12.07;;;0.40;99.90;;;;;;5013919;28;20186;-77
2021/01/09 01:45:26;;;;;;;20.10;11.83;;;0.40;99.90;;;;;;5013514;28;20190;-78
2021/01/09 01:47:51;;;;;;;23.30;11.53;;;0.40;99.90;;;;;;5013918;28;20297;-80
2021/01/09 01:50:17;;;;;;;24.30;11.97;;;0.50;99.90;;;;;;5013818;28;20187;-78
2021/01/09 01:52:44;;;;;;;20.03;11.60;;;0.60;99.90;;;;;;5012474;28;20540;-78
2021/01/09 01:55:10;;;;;;;18.80;12.35;;;0.70;99.90;;;;;;5013132;28;20197;-77
2021/01/09 01:57:36;;;;;;;22.25;13.13;;;0.70;99.90;;;;;;5013584;28;20249;-76
2021/01/09 02:00:05;;;;;;;15.40;10.97;;;0.70;99.90;;;;;;5013509;28;20294;-76
2021/01/09 02:02:30;;;;;;;26.08;12.48;;;0.70;99.90;;;;;;5013383;28;20413;-77
2021/01/09 02:05:02;;;;;;;22.77;12.90;;;0.60;99.90;;;;;;5013098;28;20276;-77
2021/01/09 02:07:33;;;;;;;18.98;12.00;;;0.70;99.90;;;;;;5013696;28;20580;-78
2021/01/09 02:10:01;;;;;;;19.48;12.18;;;0.80;99.90;;;;;;5012459;28;20183;-76
2021/01/09 02:12:48;;;;;;;22.73;12.73;;;0.90;99.90;;;;;;5012151;28;20277;-78
2021/01/09 02:15:16;;;;;;;21.85;11.20;;;0.90;99.90;;;;;;5012939;28;20229;-78
2021/01/09 02:17:44;;;;;;;20.67;11.88;;;0.90;99.90;;;;;;5013454;28;20541;-77
2021/01/09 02:20:10;;;;;;;22.80;12.10;;;0.90;99.90;;;;;;5013344;28;20285;-76
2021/01/09 02:22:43;;;;;;;23.70;11.93;;;0.80;99.90;;;;;;5013180;28;20178;-79
2021/01/09 02:25:10;;;;;;;21.10;11.55;;;0.90;99.90;;;;;;5012867;28;20194;-77
2021/01/09 02:27:37;;;;;;;26.05;13.38;;;1.00;99.90;;;;;;5013267;28;20186;-77
2021/01/09 02:30:18;;;;;;;19.08;11.45;;;0.90;99.90;;;;;;5013318;28;20261;-76
2021/01/09 02:32:47;;;;;;;28.70;12.60;;;1.10;99.90;;;;;;5013099;28;20175;-77
2021/01/09 02:35:17;;;;;;;26.98;13.60;;;1.00;99.90;;;;;;5012848;28;20187;-76
2021/01/09 02:37:44;;;;;;;22.25;13.00;;;1.00;99.90;;;;;;5013250;28;20599;-77
2021/01/09 02:40:15;;;;;;;23.25;12.77;;;1.00;99.90;;;;;;5013152;28;20234;-79
2021/01/09 02:42:41;;;;;;;26.13;14.98;;;0.90;99.90;;;;;;5013201;28;20174;-76
2021/01/09 02:45:07;;;;;;;36.63;18.10;;;0.90;99.90;;;;;;5012568;28;20570;-77
2021/01/09 02:47:33;;;;;;;27.10;16.60;;;0.90;99.90;;;;;;5013036;28;20171;-78
2021/01/09 02:49:59;;;;;;;27.70;15.93;;;0.80;99.90;;;;;;5013293;28;20182;-78
2021/01/09 02:52:24;;;;;;;23.50;13.60;;;0.90;99.90;;;;;;5014527;28;20180;-77
2021/01/09 02:54:50;;;;;;;37.73;19.40;;;0.90;99.90;;;;;;5016609;28;20199;-77
2021/01/09 02:57:15;;;;;;;33.87;19.43;;;0.90;99.90;;;;;;5016774;28;20297;-78
2021/01/09 02:59:41;;;;;;;31.67;19.30;;;1.00;99.90;;;;;;5015695;28;20211;-77
2021/01/09 03:02:07;;;;;;;29.87;18.40;;;1.00;99.90;;;;;;5016761;28;20296;-78
2021/01/09 03:04:32;;;;;;;25.97;16.70;;;1.10;99.90;;;;;;5016287;28;20195;-79
2021/01/09 03:06:58;;;;;;;32.10;18.40;;;1.20;99.90;;;;;;5016506;28;20178;-79
2021/01/09 03:09:23;;;;;;;29.30;19.37;;;1.20;99.90;;;;;;5016603;28;20174;-78
2021/01/09 03:11:49;;;;;;;32.23;17.87;;;1.20;99.90;;;;;;5016540;28;20266;-78
2021/01/09 03:14:15;;;;;;;30.27;19.23;;;1.10;99.90;;;;;;5016074;28;20256;-78
2021/01/09 03:16:40;;;;;;;29.00;17.90;;;1.10;99.90;;;;;;5016478;28;20179;-76
2021/01/09 03:19:06;;;;;;;23.83;16.40;;;1.30;99.90;;;;;;5016365;28;20171;-77
2021/01/09 03:21:32;;;;;;;22.87;14.70;;;1.20;99.90;;;;;;5016531;28;20175;-78
2021/01/09 03:23:57;;;;;;;24.43;14.93;;;1.10;99.90;;;;;;5016172;28;20168;-78
2021/01/09 03:26:23;;;;;;;28.93;14.60;;;1.10;99.90;;;;;;5016474;28;20660;-78
2021/01/09 03:28:49;;;;;;;29.55;15.20;;;1.40;99.90;;;;;;5016249;28;20545;-77
2021/01/09 03:31:14;;;;;;;26.23;15.80;;;1.40;99.90;;;;;;5016170;28;20188;-77
2021/01/09 03:33:40;;;;;;;30.30;17.40;;;1.20;99.90;;;;;;5015887;28;20248;-78
2021/01/09 03:36:06;;;;;;;30.90;16.10;;;1.20;99.90;;;;;;5016057;28;20191;-77
2021/01/09 03:38:31;;;;;;;30.37;17.40;;;1.40;99.90;;;;;;5016114;28;20663;-76
2021/01/09 03:40:57;;;;;;;27.73;16.50;;;1.50;99.90;;;;;;5015959;28;20858;-78
2021/01/09 03:43:23;;;;;;;28.07;16.37;;;1.40;99.90;;;;;;5015772;28;20167;-76
2021/01/09 03:45:48;;;;;;;25.13;14.90;;;1.40;99.90;;;;;;5014409;28;20248;-77
2021/01/09 03:48:14;;;;;;;22.40;16.13;;;1.30;99.90;;;;;;5016217;28;20180;-78
2021/01/09 03:50:39;;;;;;;30.70;16.80;;;1.40;99.90;;;;;;5016076;28;20190;-77
2021/01/09 03:53:05;;;;;;;26.23;17.57;;;1.50;99.90;;;;;;5015810;28;20184;-79
2021/01/09 03:55:30;;;;;;;29.97;15.90;;;1.30;99.90;;;;;;5015246;28;20201;-76
2021/01/09 03:57:56;;;;;;;28.93;17.03;;;1.30;99.90;;;;;;5015785;28;20176;-78
2021/01/09 04:00:22;;;;;;;30.30;18.33;;;1.20;99.90;;;;;;5015681;28;20266;-77
2021/01/09 04:02:47;;;;;;;24.77;15.93;;;1.20;99.90;;;;;;5015502;28;20175;-78
2021/01/09 04:05:13;;;;;;;26.80;15.80;;;1.20;99.90;;;;;;5015212;28;20523;-78
2021/01/09 04:07:38;;;;;;;27.80;15.30;;;1.40;99.90;;;;;;5015492;28;20175;-77
2021/01/09 04:10:05;;;;;;;24.23;14.30;;;1.30;99.90;;;;;;5015654;28;20530;-76
2021/01/09 04:12:31;;;;;;;33.45;17.33;;;1.30;99.90;;;;;;5015428;28;20290;-76
2021/01/09 04:14:56;;;;;;;29.97;16.53;;;1.40;99.90;;;;;;5014993;28;20688;-78
2021/01/09 04:17:22;;;;;;;23.93;15.20;;;1.30;99.90;;;;;;5015491;28;20599;-78
2021/01/09 04:19:48;;;;;;;28.33;15.30;;;1.20;99.90;;;;;;5015320;28;20203;-77
2021/01/09 04:22:13;;;;;;;25.00;14.23;;;1.20;99.90;;;;;;5014102;28;20644;-77
2021/01/09 04:24:39;;;;;;;30.80;16.80;;;1.10;99.90;;;;;;5014944;28;20187;-78
2021/01/09 04:27:04;;;;;;;26.23;14.63;;;1.00;99.90;;;;;;5015311;28;20167;-77
2021/01/09 04:29:30;;;;;;;25.70;16.40;;;1.00;99.90;;;;;;5015075;28;20662;-76
2021/01/09 04:31:56;;;;;;;27.83;15.73;;;1.10;99.90;;;;;;5015049;28;20544;-77
2021/01/09 04:34:23;;;;;;;33.30;17.05;;;1.20;99.90;;;;;;5014789;28;20555;-76
2021/01/09 04:36:50;;;;;;;29.92;16.27;;;1.20;99.90;;;;;;5015054;28;20268;-77
2021/01/09 04:39:15;;;;;;;29.42;15.95;;;1.00;99.90;;;;;;5014905;28;20607;-76
2021/01/09 04:41:41;;;;;;;31.00;15.70;;;0.80;99.90;;;;;;5014823;28;20250;-77
2021/01/09 04:44:09;;;;;;;32.17;16.35;;;0.90;99.90;;;;;;5014380;28;20674;-77
2021/01/09 04:46:54;;;;;;;30.30;15.60;;;0.90;99.90;;;;;;5014773;28;20175;-76
2021/01/09 04:49:25;;;;;;;31.35;15.93;;;0.90;99.90;;;;;;5014962;28;20293;-77
2021/01/09 04:51:52;;;;;;;30.42;17.60;;;0.90;99.90;;;;;;5014502;28;20576;-77
2021/01/09 04:54:20;;;;;;;30.75;17.30;;;0.90;99.90;;;;;;5014150;28;20199;-75
2021/01/09 04:56:47;;;;;;;29.55;16.42;;;0.80;99.90;;;;;;5014713;28;20530;-77
2021/01/09 04:59:15;;;;;;;32.28;16.98;;;0.90;99.90;;;;;;5014782;28;20230;-75
2021/01/09 05:01:42;;;;;;;33.20;16.52;;;0.90;99.90;;;;;;5013502;28;20639;-77
2021/01/09 05:04:08;;;;;;;29.25;15.98;;;0.90;99.90;;;;;;5014179;28;20709;-78
2021/01/09 05:06:34;;;;;;;30.10;17.38;;;1.10;99.90;;;;;;5014546;28;20175;-75
2021/01/09 05:09:00;;;;;;;35.20;17.57;;;1.00;99.90;;;;;;5013248;28;20265;-77
2021/01/09 05:11:25;;;;;;;26.83;16.17;;;1.10;99.90;;;;;;5014590;28;20178;-76
2021/01/09 05:13:51;;;;;;;32.33;15.63;;;1.10;99.90;;;;;;5014052;28;20414;-76
2021/01/09 05:16:17;;;;;;;34.10;17.30;;;1.20;99.90;;;;;;5012481;28;20191;-75
2021/01/09 05:18:43;;;;;;;31.60;17.20;;;1.50;99.90;;;;;;5014293;28;20410;-77
2021/01/09 05:21:12;;;;;;;31.52;16.10;;;1.30;99.90;;;;;;5013978;28;20203;-76
2021/01/09 05:23:50;;;;;;;37.25;18.40;;;1.30;99.90;;;;;;5013990;28;20182;-77
2021/01/09 05:26:17;;;;;;;36.00;17.98;;;1.30;99.90;;;;;;5014233;28;20210;-75
2021/01/09 05:28:48;;;;;;;33.75;16.55;;;1.30;99.90;;;;;;5014390;28;20635;-76
2021/01/09 05:31:15;;;;;;;34.35;17.00;;;1.40;99.90;;;;;;5014174;28;20754;-76
2021/01/09 05:33:41;;;;;;;33.30;16.80;;;1.50;99.90;;;;;;5013662;28;20185;-76
2021/01/09 05:36:08;;;;;;;33.70;17.05;;;1.50;99.90;;;;;;5014010;28;20269;-77
2021/01/09 05:38:35;;;;;;;37.58;18.65;;;1.40;99.90;;;;;;5013947;28;20178;-76
2021/01/09 05:41:03;;;;;;;30.95;17.45;;;1.50;99.90;;;;;;5013818;28;20209;-77
2021/01/09 05:43:29;;;;;;;34.33;18.50;;;1.40;99.90;;;;;;5013465;28;20210;-77
2021/01/09 05:45:54;;;;;;;32.63;16.90;;;1.40;99.90;;;;;;5013742;28;20226;-76
2021/01/09 05:48:20;;;;;;;35.20;19.60;;;1.30;99.90;;;;;;5013600;28;20257;-76
2021/01/09 05:50:47;;;;;;;29.00;17.03;;;1.40;99.90;;;;;;5013904;28;20186;-77
2021/01/09 05:53:43;;;;;;;32.63;17.60;;;1.40;99.90;;;;;;5013642;28;20919;-76
2021/01/09 05:56:11;;;;;;;32.20;17.33;;;1.30;99.90;;;;;;5013801;28;20191;-77
2021/01/09 05:58:37;;;;;;;36.00;18.67;;;1.10;99.90;;;;;;5013536;28;20171;-76
2021/01/09 06:01:05;;;;;;;39.70;17.27;;;1.20;99.90;;;;;;5013592;28;20192;-76
2021/01/09 06:03:45;;;;;;;28.98;16.70;;;1.20;99.90;;;;;;5012103;28;20180;-75
2021/01/09 06:06:38;;;;;;;36.55;17.30;;;1.20;99.90;;;;;;5013623;28;20167;-75
2021/01/09 06:09:06;;;;;;;34.03;16.52;;;1.20;99.90;;;;;;5013485;28;20163;-75
2021/01/09 06:11:36;;;;;;;32.20;17.17;;;1.00;99.90;;;;;;5013388;28;20183;-75
2021/01/09 06:14:05;;;;;;;37.00;17.73;;;1.10;99.90;;;;;;5013215;28;20695;-75
2021/01/09 06:16:35;;;;;;;30.67;15.35;;;1.30;99.90;;;;;;5013370;28;20196;-77
2021/01/09 06:19:01;;;;;;;30.98;17.10;;;1.20;99.90;;;;;;5013605;28;20636;-76
2021/01/09 06:21:31;;;;;;;31.63;18.70;;;1.10;99.90;;;;;;5013388;28;20238;-75
2021/01/09 06:23:58;;;;;;;32.75;18.63;;;1.10;99.90;;;;;;5013040;28;20410;-77
2021/01/09 06:26:25;;;;;;;35.08;19.17;;;1.00;99.90;;;;;;5013428;28;20171;-76
2021/01/09 06:28:57;;;;;;;36.80;18.92;;;0.90;99.90;;;;;;5017239;28;20190;-77
2021/01/09 06:31:24;;;;;;;35.10;18.73;;;1.00;99.90;;;;;;5017565;28;20178;-76
2021/01/09 06:33:52;;;;;;;35.72;19.25;;;1.10;99.90;;;;;;5015760;28;20639;-76
2021/01/09 06:36:19;;;;;;;42.65;17.90;;;1.10;99.90;;;;;;5017241;28;20175;-76
2021/01/09 06:38:48;;;;;;;46.75;18.70;;;1.10;99.90;;;;;;5017041;28;20171;-76
2021/01/09 06:41:15;;;;;;;44.55;23.30;;;1.20;99.90;;;;;;5017080;28;20224;-76
2021/01/09 06:43:45;;;;;;;51.92;21.67;;;1.20;99.90;;;;;;5016747;28;20175;-75
2021/01/09 06:46:12;;;;;;;44.30;21.00;;;1.10;99.90;;;;;;5017076;28;20178;-77
2021/01/09 06:48:43;;;;;;;46.47;20.33;;;1.00;99.90;;;;;;5016893;28;20254;-75
2021/01/09 06:51:36;;;;;;;44.25;19.08;;;0.90;99.90;;;;;;5016967;28;20175;-75
2021/01/09 06:54:14;;;;;;;56.92;21.50;;;0.90;99.90;;;;;;5016608;28;20282;-76
2021/01/09 06:56:40;;;;;;;61.60;20.40;;;0.90;99.90;;;;;;5016872;28;20261;-76
2021/01/09 06:59:06;;;;;;;49.22;20.88;;;1.00;99.90;;;;;;5016726;28;20186;-76
2021/01/09 07:01:38;;;;;;;57.20;22.02;;;1.00;99.90;;;;;;5016800;28;20171;-77
2021/01/09 07:04:07;;;;;;;55.28;19.25;;;1.00;99.90;;;;;;5016440;28;20240;-76
2021/01/09 07:06:58;;;;;;;48.58;21.80;;;1.00;99.90;;;;;;5017075;28;20170;-77
2021/01/09 07:09:25;;;;;;;87.82;22.83;;;0.90;99.90;;;;;;5016623;28;20171;-76
2021/01/09 07:11:54;;;;;;;65.70;22.30;;;1.10;99.90;;;;;;5016716;28;20183;-75
2021/01/09 07:14:19;;;;;;;82.93;23.60;;;1.00;99.90;;;;;;5016180;28;20199;-76
2021/01/09 07:16:47;;;;;;;62.40;21.63;;;1.20;99.90;;;;;;5016547;28;20568;-76
2021/01/09 07:19:14;;;;;;;95.93;24.92;;;1.20;99.90;;;;;;5016425;28;20228;-75
2021/01/09 07:21:40;;;;;;;206.43;30.17;;;1.10;99.90;;;;;;5016439;28;20699;-77
2021/01/09 07:24:09;;;;;;;95.28;23.63;;;1.10;99.90;;;;;;5016013;28;20208;-77
2021/01/09 07:26:39;;;;;;;102.00;24.48;;;1.20;99.90;;;;;;5016252;28;20184;-76
2021/01/09 07:29:05;;;;;;;109.05;25.38;;;1.10;99.90;;;;;;5016190;28;20541;-76
2021/01/09 07:31:31;;;;;;;108.40;23.77;;;1.10;99.90;;;;;;5016192;28;20180;-76
2021/01/09 07:33:59;;;;;;;138.55;27.42;;;1.20;99.90;;;;;;5015776;28;20460;-77
2021/01/09 07:36:26;;;;;;;108.80;23.02;;;1.10;99.90;;;;;;5016119;28;20171;-75
2021/01/09 07:38:57;;;;;;;127.15;24.60;;;1.10;99.90;;;;;;5015792;28;20640;-75
2021/01/09 07:41:34;;;;;;;91.60;23.17;;;1.00;99.90;;;;;;5016004;28;20269;-76
2021/01/09 07:44:14;;;;;;;69.20;20.38;;;1.10;99.90;;;;;;5015586;28;20166;-77
2021/01/09 07:46:52;;;;;;;121.82;26.63;;;1.00;99.90;;;;;;5015972;28;20229;-75
2021/01/09 07:49:28;;;;;;;115.65;24.27;;;1.00;99.90;;;;;;5015673;28;20233;-76
2021/01/09 07:52:05;;;;;;;108.40;22.75;;;0.90;99.90;;;;;;5015844;28;20228;-77
2021/01/09 07:54:44;;;;;;;103.68;25.13;;;0.80;99.90;;;;;;5014140;28;20610;-75
2021/01/09 07:57:19;;;;;;;130.80;23.30;;;0.90;99.90;;;;;;5015524;28;20236;-77
2021/01/09 07:59:54;;;;;;;76.78;22.13;;;0.80;99.90;;;;;;5014628;28;20259;-76
2021/01/09 08:02:23;;;;;;;66.95;23.23;;;0.90;99.90;;;;;;5015847;28;20201;-76
2021/01/09 08:04:48;;;;;;;120.70;24.92;;;0.90;99.90;;;;;;5015212;28;20558;-77
2021/01/09 08:07:18;;;;;;;61.83;21.27;;;1.00;99.90;;;;;;5016054;28;20179;-76
2021/01/09 08:09:44;;;;;;;49.15;21.08;;;1.00;99.90;;;;;;5015435;28;20179;-75
2021/01/09 08:12:09;;;;;;;76.10;22.10;;;1.10;99.90;;;;;;5015571;28;20177;-76
2021/01/09 08:14:35;;;;;;;89.10;23.17;;;1.10;99.90;;;;;;5014978;28;20442;-77
2021/01/09 08:17:10;;;;;;;52.87;22.73;;;1.10;99.90;;;;;;5014164;28;20207;-75
2021/01/09 08:19:36;;;;;;;45.25;20.70;;;1.20;99.90;;;;;;5015393;28;20281;-74
2021/01/09 08:22:03;;;;;;;62.57;22.37;;;1.00;99.90;;;;;;5015442;28;20263;-77
2021/01/09 08:24:29;;;;;;;51.80;19.23;;;1.00;99.90;;;;;;5015043;28;20194;-77
2021/01/09 08:26:58;;;;;;;52.88;23.67;;;1.00;99.90;;;;;;5014025;28;20179;-76
2021/01/09 08:29:25;;;;;;;54.95;21.23;;;1.00;99.90;;;;;;5015181;28;20182;-77
2021/01/09 08:31:52;;;;;;;74.78;24.70;;;1.10;99.90;;;;;;5015150;28;20624;-77
2021/01/09 08:34:21;;;;;;;76.43;24.45;;;1.00;99.90;;;;;;5014602;28;20213;-76
2021/01/09 08:36:49;;;;;;;77.85;23.33;;;1.00;99.90;;;;;;5015146;28;20639;-76
2021/01/09 08:39:15;;;;;;;80.60;22.70;;;1.00;99.90;;;;;;5014884;28;20623;-76
2021/01/09 08:41:42;;;;;;;82.33;25.00;;;1.00;99.90;;;;;;5014789;28;20182;-77
2021/01/09 08:44:12;;;;;;;98.18;24.50;;;1.00;99.90;;;;;;5014437;28;20203;-75
2021/01/09 08:46:39;;;;;;;87.78;23.55;;;1.00;99.90;;;;;;5014875;28;20199;-76
2021/01/09 08:49:07;;;;;;;86.80;22.00;;;1.00;99.90;;;;;;5014305;28;20170;-76
2021/01/09 08:51:36;;;;;;;81.97;24.17;;;1.00;99.90;;;;;;5014210;28;20174;-76
2021/01/09 08:54:10;;;;;;;82.30;23.17;;;1.00;99.90;;;;;;5014289;28;20805;-76
2021/01/09 08:56:37;;;;;;;113.22;27.48;;;1.10;99.90;;;;;;5014694;28;20285;-75
2021/01/09 08:59:04;;;;;;;72.80;21.80;;;1.10;99.90;;;;;;5014752;28;20587;-77
2021/01/09 09:01:36;;;;;;;110.95;24.35;;;1.20;99.90;;;;;;5014507;28;20628;-75
2021/01/09 09:04:03;;;;;;;132.63;26.23;;;1.20;99.90;;;;;;5014383;28;20199;-76
2021/01/09 09:06:34;;;;;;;73.97;24.90;;;1.30;99.90;;;;;;5014387;28;20225;-75
2021/01/09 09:09:00;;;;;;;97.97;27.77;;;1.20;99.90;;;;;;5014489;28;20523;-77
2021/01/09 09:11:26;;;;;;;124.17;27.43;;;1.20;99.90;;;;;;5014370;28;20171;-77
2021/01/09 09:14:09;;;;;;;122.73;26.90;;;1.30;99.90;;;;;;5013857;28;20772;-76
2021/01/09 09:16:36;;;;;;;54.50;22.10;;;1.20;99.90;;;;;;5014135;28;20603;-76
2021/01/09 09:19:15;;;;;;;104.95;22.63;;;1.20;99.90;;;;;;5014288;28;20189;-78
2021/01/09 09:21:46;;;;;;;83.55;24.73;;;1.00;99.90;;;;;;5014288;28;20177;-77
2021/01/09 09:24:14;;;;;;;72.07;25.30;;;1.30;99.90;;;;;;5013847;28;20202;-77
2021/01/09 09:26:40;;;;;;;106.50;24.85;;;1.20;99.90;;;;;;5014248;28;20180;-77
2021/01/09 09:29:06;;;;;;;81.63;24.75;;;1.20;99.90;;;;;;5014135;28;20189;-78
2021/01/09 09:31:43;;;;;;;52.87;23.07;;;1.20;99.90;;;;;;5013992;28;20175;-77
2021/01/09 09:34:15;;;;;;;69.43;23.05;;;1.10;99.90;;;;;;5013492;28;20422;-75
2021/01/09 09:37:01;;;;;;;68.63;21.60;;;1.40;99.90;;;;;;5014054;28;20541;-77
2021/01/09 09:39:27;;;;;;;73.78;27.73;;;1.40;99.90;;;;;;5013529;28;20270;-77
2021/01/09 09:42:01;;;;;;;69.17;23.63;;;1.40;99.90;;;;;;5013838;28;20176;-77
2021/01/09 09:44:43;;;;;;;58.50;22.30;;;1.50;99.90;;;;;;5013526;28;20796;-78
2021/01/09 09:47:11;;;;;;;71.20;23.05;;;1.60;99.90;;;;;;5013821;28;20186;-76
2021/01/09 09:49:42;;;;;;;65.93;22.23;;;1.60;99.90;;;;;;5013796;28;20179;-76
2021/01/09 09:52:18;;;;;;;72.93;24.48;;;1.50;99.90;;;;;;5013726;28;20171;-77
2021/01/09 09:54:44;;;;;;;73.70;22.48;;;1.60;99.90;;;;;;5013271;28;20313;-78
2021/01/09 09:57:19;;;;;;;68.27;25.37;;;1.60;99.90;;;;;;5013540;28;20635;-77
2021/01/09 09:59:45;;;;;;;69.35;24.08;;;1.50;99.90;;;;;;5013579;28;20456;-78
2021/01/09 10:02:11;;;;;;;67.27;24.40;;;1.50;99.90;;;;;;5013199;28;20632;-76
2021/01/09 10:04:43;;;;;;;66.43;24.10;;;1.70;99.90;;;;;;5013230;28;20196;-76
2021/01/09 10:07:23;;;;;;;64.13;21.83;;;1.60;99.90;;;;;;5013800;28;20179;-76
2021/01/09 10:09:49;;;;;;;65.18;24.73;;;1.40;99.90;;;;;;5013756;28;20632;-75
2021/01/09 10:12:14;;;;;;;70.03;24.10;;;1.40;99.90;;;;;;5013595;28;20205;-76
2021/01/09 10:14:41;;;;;;;49.80;23.60;;;1.60;99.90;;;;;;5013061;28;20208;-75
2021/01/09 10:17:13;;;;;;;68.05;24.55;;;1.80;99.90;;;;;;5010242;28;20436;-77
2021/01/09 10:19:38;;;;;;;83.60;27.83;;;1.80;99.90;;;;;;5010392;28;20198;-76
2021/01/09 10:22:04;;;;;;;65.53;24.50;;;1.80;99.90;;;;;;5013290;28;20171;-75
2021/01/09 10:24:29;;;;;;;71.53;24.50;;;1.70;99.90;;;;;;5012937;28;20199;-78
2021/01/09 10:26:55;;;;;;;71.60;24.70;;;2.00;99.90;;;;;;5012379;28;20263;-76
2021/01/09 10:29:21;;;;;;;66.20;24.20;;;1.90;99.90;;;;;;5013580;28;20175;-75
2021/01/09 10:31:46;;;;;;;57.43;25.17;;;1.80;99.90;;;;;;5013129;28;20258;-77
2021/01/09 10:34:12;;;;;;;57.57;22.40;;;1.80;99.90;;;;;;5012566;28;20195;-77
2021/01/09 10:36:38;;;;;;;71.97;26.93;;;2.00;99.90;;;;;;5013225;28;20213;-76
2021/01/09 10:39:06;;;;;;;75.18;28.45;;;2.00;99.90;;;;;;5013054;28;20171;-77
2021/01/09 10:41:32;;;;;;;54.78;22.90;;;1.90;99.90;;;;;;5013172;28;20218;-75
2021/01/09 10:43:58;;;;;;;68.93;27.88;;;1.70;99.90;;;;;;5012738;28;20172;-76
2021/01/09 10:46:26;;;;;;;70.03;26.83;;;1.60;99.90;;;;;;5012936;28;20229;-75
2021/01/09 10:48:52;;;;;;;68.38;25.25;;;1.60;99.90;;;;;;5013175;28;20187;-77
2021/01/09 10:51:20;;;;;;;86.18;26.40;;;1.60;99.90;;;;;;5013074;28;20236;-77
2021/01/09 10:53:47;;;;;;;72.18;28.25;;;1.60;99.90;;;;;;5012528;28;20263;-77
2021/01/09 10:56:13;;;;;;;83.95;27.60;;;1.60;99.90;;;;;;5012211;28;20294;-76
2021/01/09 10:58:38;;;;;;;72.10;28.27;;;1.80;99.90;;;;;;5009759;28;20177;-76
2021/01/09 11:01:05;;;;;;;76.80;30.80;;;1.70;99.90;;;;;;5012010;28;20667;-77
2021/01/09 11:03:31;;;;;;;74.47;27.90;;;1.80;99.90;;;;;;5012422;28;20457;-76
2021/01/09 11:05:57;;;;;;;90.47;31.02;;;1.80;99.90;;;;;;5012735;28;20526;-76
2021/01/09 11:08:23;;;;;;;81.60;29.85;;;1.90;99.90;;;;;;5012774;28;20175;-74
2021/01/09 11:10:49;;;;;;;85.72;28.73;;;1.90;99.90;;;;;;5012691;28;20529;-77
2021/01/09 11:13:15;;;;;;;84.78;28.25;;;1.80;99.90;;;;;;5013968;28;20175;-75
2021/01/09 11:15:44;;;;;;;73.23;26.40;;;1.80;99.90;;;;;;5016125;28;20237;-77
2021/01/09 11:18:10;;;;;;;82.57;31.38;;;1.90;99.90;;;;;;5016576;28;20187;-75
2021/01/09 11:20:36;;;;;;;78.63;31.10;;;1.90;99.90;;;;;;5016350;28;20558;-77
2021/01/09 11:23:02;;;;;;;69.22;23.67;;;1.90;99.90;;;;;;5016337;28;20409;-76
2021/01/09 11:25:28;;;;;;;71.47;24.97;;;1.70;99.90;;;;;;5015860;28;20192;-76
2021/01/09 11:27:53;;;;;;;66.67;27.80;;;1.70;99.90;;;;;;5015074;28;20636;-77
2021/01/09 11:30:19;;;;;;;69.60;27.03;;;1.90;99.90;;;;;;5015018;28;20174;-75
2021/01/09 11:32:45;;;;;;;85.30;28.63;;;1.90;99.90;;;;;;5016130;28;20546;-77
2021/01/09 11:35:11;;;;;;;73.67;28.50;;;1.80;99.90;;;;;;5015518;28;20206;-76
2021/01/09 11:37:36;;;;;;;72.57;25.30;;;2.00;99.90;;;;;;5016084;28;20671;-76
2021/01/09 11:40:03;;;;;;;72.03;26.13;;;2.10;99.90;;;;;;5016119;28;20464;-76
2021/01/09 11:42:29;;;;;;;67.90;27.77;;;2.10;99.90;;;;;;5015760;28;20533;-76
2021/01/09 11:44:55;;;;;;;67.43;25.60;;;1.90;99.90;;;;;;5015546;28;20192;-77
2021/01/09 11:47:20;;;;;;;71.70;27.80;;;2.00;99.90;;;;;;5015849;28;20481;-77
2021/01/09 11:49:46;;;;;;;58.47;24.90;;;2.00;99.90;;;;;;5015974;28;20205;-77
2021/01/09 11:52:12;;;;;;;71.60;24.80;;;2.10;99.90;;;;;;5015797;28;20540;-76
2021/01/09 11:54:37;;;;;;;64.27;26.23;;;2.00;99.90;;;;;;5015100;28;20207;-76
2021/01/09 11:57:03;;;;;;;61.80;22.67;;;1.90;99.90;;;;;;5015022;28;20716;-75
2021/01/09 11:59:28;;;;;;;59.40;24.03;;;2.00;99.90;;;;;;5015320;28;20189;-79
2021/01/09 12:01:54;;;;;;;59.20;24.30;;;2.00;99.90;;;;;;5015448;28;20520;-77
2021/01/09 12:04:20;;;;;;;57.87;23.70;;;2.10;99.90;;;;;;5015218;28;20205;-77
2021/01/09 12:06:46;;;;;;;58.92;23.92;;;2.10;99.90;;;;;;5015855;28;20179;-78
2021/01/09 12:09:11;;;;;;;69.30;25.50;;;2.30;99.90;;;;;;5015508;28;20168;-77
2021/01/09 12:11:37;;;;;;;62.03;26.80;;;2.30;99.90;;;;;;5015559;28;20179;-75
2021/01/09 12:14:03;;;;;;;66.50;26.80;;;2.30;99.90;;;;;;5015150;28;20191;-77
2021/01/09 12:16:29;;;;;;;65.27;24.37;;;2.30;99.90;;;;;;5015529;28;20275;-76
2021/01/09 12:18:56;;;;;;;62.75;26.75;;;2.20;99.90;;;;;;5015437;28;20533;-75
2021/01/09 12:21:22;;;;;;;67.20;28.40;;;2.30;99.90;;;;;;5014895;28;20195;-77
2021/01/09 12:23:48;;;;;;;68.05;27.70;;;2.30;99.90;;;;;;5014910;28;20530;-78
2021/01/09 12:26:20;;;;;;;72.43;26.52;;;2.40;99.90;;;;;;5015192;28;20175;-75
2021/01/09 12:28:46;;;;;;;67.40;26.95;;;2.40;99.90;;;;;;5015299;28;20238;-77
2021/01/09 12:31:12;;;;;;;58.83;23.97;;;2.40;99.90;;;;;;5015260;28;20178;-75
2021/01/09 12:33:38;;;;;;;70.10;24.57;;;2.40;99.90;;;;;;5014843;28;20450;-77
2021/01/09 12:36:04;;;;;;;61.88;24.98;;;2.60;99.90;;;;;;5014997;28;20620;-75
2021/01/09 12:38:29;;;;;;;68.07;24.65;;;2.60;99.90;;;;;;5014933;28;20171;-78